createdAt,value
2018-06-17T00:00:57.571Z,0.00
2018-06-17T00:01:57.572Z,0.00
2018-06-17T00:02:57.577Z,0.00
2018-06-17T00:03:57.581Z,0.00
2018-06-17T00:04:57.582Z,0.00
2018-06-17T00:05:57.584Z,0.00
2018-06-17T00:06:57.586Z,0.00
2018-06-17T00:07:57.590Z,0.00
2018-06-17T00:08:57.592Z,0.00
2018-06-17T00:09:57.597Z,0.00
2018-06-17T00:10:57.598Z,0.00
2018-06-17T00:11:57.601Z,0.00
2018-06-17T00:12:57.604Z,0.00
2018-06-17T00:13:57.606Z,0.00
2018-06-17T00:14:57.607Z,0.00
2018-06-17T00:15:57.612Z,0.00
2018-06-17T00:16:57.615Z,0.00
2018-06-17T00:17:57.616Z,0.00
2018-06-17T00:18:57.620Z,0.00
2018-06-17T00:19:57.623Z,0.00
2018-06-17T00:20:57.626Z,0.00
2018-06-17T00:21:57.627Z,0.00
2018-06-17T00:22:57.630Z,0.00
2018-06-17T00:23:57.633Z,0.00
2018-06-17T00:24:57.636Z,0.00
2018-06-17T00:25:57.638Z,0.00
2018-06-17T00:26:57.641Z,0.00
2018-06-17T00:27:57.645Z,0.00
2018-06-17T00:28:57.646Z,0.00
2018-06-17T00:29:57.649Z,0.00
2018-06-17T00:30:57.652Z,0.00
2018-06-17T00:31:57.655Z,0.00
2018-06-17T00:32:57.657Z,0.00
2018-06-17T00:33:57.659Z,0.00
2018-06-17T00:34:57.665Z,0.00
2018-06-17T00:35:57.665Z,0.00
2018-06-17T00:36:57.668Z,0.00
2018-06-17T00:37:57.668Z,0.00
2018-06-17T00:38:57.673Z,0.00
2018-06-17T00:39:57.675Z,0.00
2018-06-17T00:40:57.679Z,0.00
2018-06-17T00:41:57.680Z,0.00
2018-06-17T00:42:57.683Z,0.00
2018-06-17T00:43:57.685Z,0.00
2018-06-17T00:44:57.689Z,0.00
2018-06-17T00:45:57.690Z,0.00
2018-06-17T00:46:57.693Z,0.00
2018-06-17T00:47:57.696Z,0.00
2018-06-17T00:48:57.699Z,0.00
2018-06-17T00:49:57.701Z,0.00
2018-06-17T00:50:57.703Z,0.00
2018-06-17T00:51:57.707Z,0.00
2018-06-17T00:52:57.709Z,0.00
2018-06-17T00:53:57.713Z,0.00
2018-06-17T00:54:57.715Z,0.00
2018-06-17T00:55:57.714Z,0.00
2018-06-17T00:56:57.718Z,0.00
2018-06-17T00:57:57.720Z,0.00
2018-06-17T00:58:57.724Z,0.00
2018-06-17T00:59:57.725Z,0.00
2018-06-17T01:00:57.728Z,0.00
2018-06-17T01:01:57.730Z,0.00
2018-06-17T01:02:57.732Z,0.00
2018-06-17T01:03:57.733Z,0.00
2018-06-17T01:04:57.738Z,0.00
2018-06-17T01:05:57.740Z,0.00
2018-06-17T01:06:57.742Z,0.00
2018-06-17T01:07:57.744Z,0.00
2018-06-17T01:08:57.747Z,0.00
2018-06-17T01:09:57.749Z,0.00
2018-06-17T01:10:57.751Z,0.00
2018-06-17T01:11:57.757Z,0.00
2018-06-17T01:12:57.756Z,0.00
2018-06-17T01:13:57.756Z,0.00
2018-06-17T01:14:57.760Z,0.00
2018-06-17T01:15:57.762Z,0.00
2018-06-17T01:16:57.765Z,0.00
2018-06-17T01:17:57.766Z,0.00
2018-06-17T01:18:57.791Z,0.00
2018-06-17T01:19:57.774Z,0.00
2018-06-17T01:20:57.773Z,0.00
2018-06-17T01:21:57.777Z,0.00
2018-06-17T01:22:57.776Z,0.00
2018-06-17T01:23:57.779Z,0.00
2018-06-17T01:24:57.781Z,0.00
2018-06-17T01:25:57.782Z,0.00
2018-06-17T01:26:57.785Z,0.00
2018-06-17T01:27:57.787Z,0.00
2018-06-17T01:28:57.789Z,0.00
2018-06-17T01:29:57.791Z,0.00
2018-06-17T01:30:57.792Z,0.00
2018-06-17T01:31:57.795Z,0.00
2018-06-17T01:32:57.800Z,0.00
2018-06-17T01:33:57.798Z,0.00
2018-06-17T01:34:57.802Z,0.00
2018-06-17T01:35:57.803Z,0.00
2018-06-17T01:36:57.804Z,0.00
2018-06-17T01:37:57.806Z,0.00
2018-06-17T01:38:57.807Z,0.00
2018-06-17T01:39:57.811Z,0.00
2018-06-17T01:40:57.811Z,0.00
2018-06-17T01:41:57.816Z,0.00
2018-06-17T01:42:57.814Z,0.00
2018-06-17T01:43:57.816Z,0.00
2018-06-17T01:44:57.818Z,0.00
2018-06-17T01:45:57.819Z,0.00
2018-06-17T01:46:57.819Z,0.00
2018-06-17T01:47:57.822Z,0.00
2018-06-17T01:48:57.824Z,0.00
2018-06-17T01:49:57.833Z,0.00
2018-06-17T01:50:57.826Z,0.00
2018-06-17T01:51:57.828Z,0.00
2018-06-17T01:52:57.830Z,0.00
2018-06-17T01:53:57.831Z,0.00
2018-06-17T01:54:57.833Z,0.00
2018-06-17T01:55:57.834Z,0.00
2018-06-17T01:56:57.836Z,0.00
2018-06-17T01:57:57.836Z,0.00
2018-06-17T01:58:57.841Z,0.00
2018-06-17T01:59:57.841Z,0.00
2018-06-17T02:00:57.845Z,0.00
2018-06-17T02:01:57.841Z,0.00
2018-06-17T02:02:57.844Z,0.00
2018-06-17T02:03:57.844Z,0.00
2018-06-17T02:04:57.846Z,0.00
2018-06-17T02:05:57.846Z,0.00
2018-06-17T02:06:57.850Z,0.00
2018-06-17T02:07:57.850Z,0.00
2018-06-17T02:08:57.852Z,0.00
2018-06-17T02:09:57.852Z,0.00
2018-06-17T02:10:57.854Z,0.00
2018-06-17T02:11:57.855Z,0.00
2018-06-17T02:12:57.857Z,0.00
2018-06-17T02:13:57.857Z,0.00
2018-06-17T02:14:57.858Z,0.00
2018-06-17T02:15:57.862Z,0.00
2018-06-17T02:16:57.862Z,0.00
2018-06-17T02:17:57.863Z,0.00
2018-06-17T02:18:57.864Z,0.00
2018-06-17T02:19:57.867Z,0.00
2018-06-17T02:20:57.867Z,0.00
2018-06-17T02:21:57.869Z,0.00
2018-06-17T02:22:57.872Z,0.00
2018-06-17T02:23:57.871Z,0.00
2018-06-17T02:24:57.878Z,0.00
2018-06-17T02:25:57.874Z,0.00
2018-06-17T02:26:57.874Z,0.00
2018-06-17T02:27:57.877Z,0.00
2018-06-17T02:28:57.878Z,0.00
2018-06-17T02:29:57.879Z,0.00
2018-06-17T02:30:57.881Z,0.00
2018-06-17T02:31:57.882Z,0.00
2018-06-17T02:32:57.884Z,0.00
2018-06-17T02:33:57.885Z,0.00
2018-06-17T02:34:57.890Z,0.00
2018-06-17T02:35:57.888Z,0.00
2018-06-17T02:36:57.889Z,0.00
2018-06-17T02:37:57.890Z,0.00
2018-06-17T02:38:57.892Z,0.00
2018-06-17T02:39:57.893Z,0.00
2018-06-17T02:40:57.895Z,0.00
2018-06-17T02:41:57.895Z,0.00
2018-06-17T02:42:57.897Z,0.00
2018-06-17T02:43:57.898Z,0.00
2018-06-17T02:44:57.899Z,0.00
2018-06-17T02:45:57.904Z,0.00
2018-06-17T02:46:57.901Z,0.00
2018-06-17T02:47:57.910Z,0.00
2018-06-17T02:48:57.905Z,0.00
2018-06-17T02:49:57.906Z,0.00
2018-06-17T02:50:57.906Z,0.00
2018-06-17T02:51:57.907Z,0.00
2018-06-17T02:52:57.909Z,0.00
2018-06-17T02:53:57.911Z,0.00
2018-06-17T02:54:57.911Z,0.00
2018-06-17T02:55:57.913Z,0.00
2018-06-17T02:56:57.914Z,0.00
2018-06-17T02:57:57.915Z,0.00
2018-06-17T02:58:57.916Z,0.00
2018-06-17T02:59:57.918Z,0.00
2018-06-17T03:00:57.919Z,0.00
2018-06-17T03:01:57.920Z,0.00
2018-06-17T03:02:57.920Z,0.00
2018-06-17T03:03:57.951Z,0.00
2018-06-17T03:04:57.923Z,0.00
2018-06-17T03:05:57.924Z,0.00
2018-06-17T03:06:57.926Z,0.00
2018-06-17T03:07:57.925Z,0.00
2018-06-17T03:08:57.928Z,0.00
2018-06-17T03:09:57.934Z,5.63
2018-06-17T03:10:57.931Z,5.63
2018-06-17T03:11:57.931Z,5.63
2018-06-17T03:12:57.933Z,5.63
2018-06-17T03:13:57.933Z,5.63
2018-06-17T03:14:57.934Z,5.63
2018-06-17T03:15:57.936Z,5.63
2018-06-17T03:16:57.940Z,5.63
2018-06-17T03:17:57.938Z,5.63
2018-06-17T03:18:57.938Z,5.63
2018-06-17T03:19:57.940Z,5.63
2018-06-17T03:20:57.941Z,11.25
2018-06-17T03:21:57.942Z,11.25
2018-06-17T03:22:57.943Z,11.25
2018-06-17T03:23:57.945Z,11.25
2018-06-17T03:24:57.945Z,16.88
2018-06-17T03:25:57.947Z,16.88
2018-06-17T03:26:57.965Z,16.88
2018-06-17T03:27:57.950Z,16.88
2018-06-17T03:28:57.953Z,22.50
2018-06-17T03:29:57.951Z,22.50
2018-06-17T03:30:57.953Z,22.50
2018-06-17T03:31:57.954Z,22.50
2018-06-17T03:32:57.955Z,16.88
2018-06-17T03:33:57.955Z,22.50
2018-06-17T03:34:57.957Z,22.50
2018-06-17T03:35:57.958Z,22.50
2018-06-17T03:36:57.960Z,22.50
2018-06-17T03:37:57.960Z,28.13
2018-06-17T03:38:57.963Z,28.13
2018-06-17T03:39:57.963Z,28.13
2018-06-17T03:40:57.965Z,28.13
2018-06-17T03:41:57.968Z,33.75
2018-06-17T03:42:57.967Z,33.75
2018-06-17T03:43:57.967Z,39.38
2018-06-17T03:44:57.969Z,39.38
2018-06-17T03:45:57.971Z,39.38
2018-06-17T03:46:57.971Z,45.00
2018-06-17T03:47:57.973Z,45.00
2018-06-17T03:48:57.974Z,45.00
2018-06-17T03:49:57.978Z,45.00
2018-06-17T03:50:57.976Z,45.00
2018-06-17T03:51:57.978Z,45.00
2018-06-17T03:52:57.979Z,50.63
2018-06-17T03:53:57.981Z,56.25
2018-06-17T03:54:57.980Z,61.88
2018-06-17T03:55:57.983Z,73.13
2018-06-17T03:56:57.983Z,73.13
2018-06-17T03:57:57.984Z,73.13
2018-06-17T03:58:57.984Z,73.13
2018-06-17T03:59:57.986Z,73.13
2018-06-17T04:00:57.987Z,73.13
2018-06-17T04:01:57.988Z,73.13
2018-06-17T04:02:57.989Z,73.13
2018-06-17T04:03:58.049Z,84.38
2018-06-17T04:04:57.992Z,84.38
2018-06-17T04:05:57.992Z,84.38
2018-06-17T04:06:57.994Z,84.38
2018-06-17T04:07:57.995Z,84.38
2018-06-17T04:08:57.996Z,78.75
2018-06-17T04:09:57.998Z,73.13
2018-06-17T04:10:57.998Z,73.13
2018-06-17T04:11:58.001Z,73.13
2018-06-17T04:12:57.999Z,73.13
2018-06-17T04:13:58.002Z,67.50
2018-06-17T04:14:58.003Z,67.50
2018-06-17T04:15:58.017Z,73.13
2018-06-17T04:16:58.006Z,73.13
2018-06-17T04:17:58.005Z,73.13
2018-06-17T04:18:58.007Z,78.75
2018-06-17T04:19:58.008Z,78.75
2018-06-17T04:20:58.010Z,84.38
2018-06-17T04:21:58.010Z,90.00
2018-06-17T04:22:58.012Z,90.00
2018-06-17T04:23:58.013Z,90.00
2018-06-17T04:24:58.014Z,90.00
2018-06-17T04:25:58.014Z,95.63
2018-06-17T04:26:58.016Z,95.63
2018-06-17T04:27:58.016Z,95.63
2018-06-17T04:28:58.018Z,101.25
2018-06-17T04:29:58.017Z,101.25
2018-06-17T04:30:58.019Z,101.25
2018-06-17T04:31:58.020Z,101.25
2018-06-17T04:32:58.021Z,106.88
2018-06-17T04:33:58.023Z,106.88
2018-06-17T04:34:58.022Z,112.50
2018-06-17T04:35:58.024Z,118.13
2018-06-17T04:36:58.025Z,118.13
2018-06-17T04:37:58.025Z,118.13
2018-06-17T04:38:58.028Z,123.75
2018-06-17T04:39:58.027Z,123.75
2018-06-17T04:40:58.028Z,123.75
2018-06-17T04:41:58.029Z,129.38
2018-06-17T04:42:58.030Z,129.38
2018-06-17T04:43:58.031Z,129.38
2018-06-17T04:44:58.032Z,135.00
2018-06-17T04:45:58.033Z,135.00
2018-06-17T04:46:58.034Z,135.00
2018-06-17T04:47:58.035Z,135.00
2018-06-17T04:48:58.037Z,135.00
2018-06-17T04:49:58.037Z,135.00
2018-06-17T04:50:58.037Z,135.00
2018-06-17T04:51:58.039Z,135.00
2018-06-17T04:52:58.040Z,135.00
2018-06-17T04:53:58.041Z,140.63
2018-06-17T04:54:58.039Z,140.63
2018-06-17T04:55:58.049Z,146.25
2018-06-17T04:56:58.044Z,146.25
2018-06-17T04:57:58.044Z,146.25
2018-06-17T04:58:58.044Z,146.25
2018-06-17T04:59:58.071Z,146.25
2018-06-17T05:00:58.048Z,151.88
2018-06-17T05:01:58.048Z,151.88
2018-06-17T05:02:58.049Z,151.88
2018-06-17T05:03:58.050Z,151.88
2018-06-17T05:04:58.053Z,157.50
2018-06-17T05:05:58.054Z,157.50
2018-06-17T05:06:58.052Z,163.13
2018-06-17T05:07:58.053Z,163.13
2018-06-17T05:08:58.054Z,163.13
2018-06-17T05:09:58.056Z,168.75
2018-06-17T05:10:58.056Z,180.00
2018-06-17T05:11:58.059Z,180.00
2018-06-17T05:12:58.059Z,185.63
2018-06-17T05:13:58.060Z,185.63
2018-06-17T05:14:58.060Z,191.25
2018-06-17T05:15:58.061Z,196.88
2018-06-17T05:16:58.063Z,196.88
2018-06-17T05:17:58.063Z,208.13
2018-06-17T05:18:58.065Z,1186.88
2018-06-17T05:19:58.066Z,2542.50
2018-06-17T05:20:58.067Z,2840.63
2018-06-17T05:21:58.072Z,2801.25
2018-06-17T05:22:58.070Z,2767.50
2018-06-17T05:23:58.073Z,2790.00
2018-06-17T05:24:58.075Z,2486.25
2018-06-17T05:25:58.078Z,2311.88
2018-06-17T05:26:58.082Z,2576.25
2018-06-17T05:27:58.087Z,2801.25
2018-06-17T05:28:58.090Z,2621.25
2018-06-17T05:29:58.095Z,1901.25
2018-06-17T05:30:58.100Z,2508.75
2018-06-17T05:31:58.107Z,2919.38
2018-06-17T05:32:58.114Z,2846.25
2018-06-17T05:33:58.118Z,2930.63
2018-06-17T05:34:58.126Z,3009.38
2018-06-17T05:35:58.133Z,2986.88
2018-06-17T05:36:58.141Z,2902.50
2018-06-17T05:37:58.148Z,3082.50
2018-06-17T05:38:58.156Z,3217.50
2018-06-17T05:39:58.164Z,3031.88
2018-06-17T05:40:58.173Z,3060.00
2018-06-17T05:41:58.181Z,3178.13
2018-06-17T05:42:58.192Z,3093.75
2018-06-17T05:43:58.204Z,2615.63
2018-06-17T05:44:58.209Z,2148.75
2018-06-17T05:45:58.218Z,1586.25
2018-06-17T05:46:58.228Z,1057.50
2018-06-17T05:47:58.237Z,753.75
2018-06-17T05:48:58.247Z,472.50
2018-06-17T05:49:58.255Z,444.38
2018-06-17T05:50:58.265Z,416.25
2018-06-17T05:51:58.273Z,416.25
2018-06-17T05:52:58.283Z,410.63
2018-06-17T05:53:58.291Z,405.00
2018-06-17T05:54:58.299Z,399.38
2018-06-17T05:55:58.310Z,393.75
2018-06-17T05:56:58.317Z,388.13
2018-06-17T05:57:58.323Z,382.50
2018-06-17T05:58:58.333Z,371.25
2018-06-17T05:59:58.338Z,376.88
2018-06-17T06:00:58.345Z,382.50
2018-06-17T06:01:58.352Z,388.13
2018-06-17T06:02:58.360Z,399.38
2018-06-17T06:03:58.380Z,410.63
2018-06-17T06:04:58.373Z,410.63
2018-06-17T06:05:58.379Z,416.25
2018-06-17T06:06:58.385Z,416.25
2018-06-17T06:07:58.392Z,399.38
2018-06-17T06:08:58.396Z,393.75
2018-06-17T06:09:58.411Z,382.50
2018-06-17T06:10:58.409Z,376.88
2018-06-17T06:11:58.416Z,393.75
2018-06-17T06:12:58.420Z,410.63
2018-06-17T06:13:58.425Z,416.25
2018-06-17T06:14:58.431Z,410.63
2018-06-17T06:15:58.436Z,421.88
2018-06-17T06:16:58.444Z,438.75
2018-06-17T06:17:58.446Z,433.13
2018-06-17T06:18:58.451Z,421.88
2018-06-17T06:19:58.456Z,410.63
2018-06-17T06:20:58.462Z,399.38
2018-06-17T06:21:58.466Z,399.38
2018-06-17T06:22:58.471Z,388.13
2018-06-17T06:23:58.475Z,382.50
2018-06-17T06:24:58.481Z,382.50
2018-06-17T06:25:58.483Z,371.25
2018-06-17T06:26:58.501Z,371.25
2018-06-17T06:27:58.494Z,376.88
2018-06-17T06:28:58.501Z,382.50
2018-06-17T06:29:58.503Z,388.13
2018-06-17T06:30:58.511Z,399.38
2018-06-17T06:31:58.510Z,399.38
2018-06-17T06:32:58.516Z,410.63
2018-06-17T06:33:58.519Z,416.25
2018-06-17T06:34:58.523Z,427.50
2018-06-17T06:35:58.528Z,427.50
2018-06-17T06:36:58.532Z,444.38
2018-06-17T06:37:58.536Z,489.38
2018-06-17T06:38:58.540Z,511.88
2018-06-17T06:39:58.544Z,489.38
2018-06-17T06:40:58.549Z,472.50
2018-06-17T06:41:58.552Z,438.75
2018-06-17T06:42:58.586Z,438.75
2018-06-17T06:43:58.561Z,421.88
2018-06-17T06:44:58.565Z,405.00
2018-06-17T06:45:58.568Z,421.88
2018-06-17T06:46:58.572Z,433.13
2018-06-17T06:47:58.576Z,461.25
2018-06-17T06:48:58.580Z,478.13
2018-06-17T06:49:58.587Z,483.75
2018-06-17T06:50:58.654Z,495.00
2018-06-17T06:51:58.592Z,483.75
2018-06-17T06:52:58.596Z,489.38
2018-06-17T06:53:58.599Z,500.63
2018-06-17T06:54:58.602Z,511.88
2018-06-17T06:55:58.607Z,517.50
2018-06-17T06:56:58.612Z,517.50
2018-06-17T06:57:58.614Z,534.38
2018-06-17T06:58:58.619Z,568.13
2018-06-17T06:59:58.623Z,556.88
2018-06-17T07:00:58.629Z,568.13
2018-06-17T07:01:58.630Z,579.38
2018-06-17T07:02:58.635Z,624.38
2018-06-17T07:03:58.639Z,635.63
2018-06-17T07:04:58.643Z,624.38
2018-06-17T07:05:58.647Z,618.75
2018-06-17T07:06:58.651Z,607.50
2018-06-17T07:07:58.655Z,641.25
2018-06-17T07:08:58.663Z,658.13
2018-06-17T07:09:58.670Z,663.75
2018-06-17T07:10:58.668Z,691.88
2018-06-17T07:11:58.672Z,680.63
2018-06-17T07:12:58.678Z,613.13
2018-06-17T07:13:58.680Z,686.25
2018-06-17T07:14:58.684Z,658.13
2018-06-17T07:15:58.692Z,663.75
2018-06-17T07:16:58.694Z,691.88
2018-06-17T07:17:58.697Z,680.63
2018-06-17T07:18:58.701Z,669.38
2018-06-17T07:19:58.706Z,663.75
2018-06-17T07:20:58.710Z,680.63
2018-06-17T07:21:58.717Z,708.75
2018-06-17T07:22:58.720Z,736.88
2018-06-17T07:23:58.724Z,810.00
2018-06-17T07:24:58.740Z,1130.63
2018-06-17T07:25:58.733Z,1681.88
2018-06-17T07:26:58.741Z,2182.50
2018-06-17T07:27:58.744Z,2250.00
2018-06-17T07:28:58.748Z,2683.13
2018-06-17T07:29:58.756Z,2975.63
2018-06-17T07:30:58.759Z,3003.75
2018-06-17T07:31:58.764Z,2390.63
2018-06-17T07:32:58.769Z,815.63
2018-06-17T07:33:58.778Z,2413.13
2018-06-17T07:34:58.786Z,2199.38
2018-06-17T07:35:58.800Z,2143.13
2018-06-17T07:36:58.796Z,2171.25
2018-06-17T07:37:58.808Z,1743.75
2018-06-17T07:38:58.810Z,1845.00
2018-06-17T07:39:58.819Z,1867.50
2018-06-17T07:40:58.825Z,1861.88
2018-06-17T07:41:58.832Z,1783.13
2018-06-17T07:42:58.838Z,1912.50
2018-06-17T07:43:58.847Z,1771.88
2018-06-17T07:44:58.855Z,2131.88
2018-06-17T07:45:58.868Z,2283.75
2018-06-17T07:46:58.871Z,2345.63
2018-06-17T07:47:58.885Z,2154.38
2018-06-17T07:48:58.888Z,1996.88
2018-06-17T07:49:58.902Z,2030.63
2018-06-17T07:50:58.903Z,2030.63
2018-06-17T07:51:58.917Z,1715.63
2018-06-17T07:52:58.920Z,1715.63
2018-06-17T07:53:58.930Z,1423.13
2018-06-17T07:54:58.937Z,1434.38
2018-06-17T07:55:58.971Z,1951.88
2018-06-17T07:56:58.955Z,2126.25
2018-06-17T07:57:58.962Z,2593.13
2018-06-17T07:58:58.972Z,2840.63
2018-06-17T07:59:58.980Z,3105.00
2018-06-17T08:00:58.989Z,2694.38
2018-06-17T08:01:58.997Z,2469.38
2018-06-17T08:02:59.006Z,2396.25
2018-06-17T08:03:59.016Z,2385.00
2018-06-17T08:04:59.025Z,2193.75
2018-06-17T08:05:59.034Z,2216.25
2018-06-17T08:06:59.043Z,2103.75
2018-06-17T08:07:59.054Z,2289.38
2018-06-17T08:08:59.064Z,1085.63
2018-06-17T08:09:59.073Z,1575.00
2018-06-17T08:10:59.184Z,2430.00
2018-06-17T08:11:59.094Z,2784.38
2018-06-17T08:12:59.104Z,2475.00
2018-06-17T08:13:59.112Z,641.25
2018-06-17T08:14:59.122Z,545.63
2018-06-17T08:15:59.132Z,573.75
2018-06-17T08:16:59.143Z,523.13
2018-06-17T08:17:59.151Z,691.88
2018-06-17T08:18:59.161Z,686.25
2018-06-17T08:19:59.171Z,663.75
2018-06-17T08:20:59.180Z,551.25
2018-06-17T08:21:59.190Z,1147.50
2018-06-17T08:22:59.198Z,804.38
2018-06-17T08:23:59.209Z,720.00
2018-06-17T08:24:59.244Z,2581.88
2018-06-17T08:25:59.232Z,961.88
2018-06-17T08:26:59.235Z,663.75
2018-06-17T08:27:59.247Z,843.75
2018-06-17T08:28:59.254Z,787.50
2018-06-17T08:29:59.260Z,967.50
2018-06-17T08:30:59.270Z,568.13
2018-06-17T08:31:59.288Z,483.75
2018-06-17T08:32:59.287Z,427.50
2018-06-17T08:33:59.301Z,1260.00
2018-06-17T08:34:59.302Z,2070.00
2018-06-17T08:35:59.317Z,506.25
2018-06-17T08:36:59.319Z,438.75
2018-06-17T08:37:59.326Z,607.50
2018-06-17T08:38:59.335Z,1108.13
2018-06-17T08:39:59.350Z,905.63
2018-06-17T08:40:59.351Z,1040.63
2018-06-17T08:41:59.358Z,1063.13
2018-06-17T08:42:59.367Z,1057.50
2018-06-17T08:43:59.374Z,1226.25
2018-06-17T08:44:59.382Z,1215.00
2018-06-17T08:45:59.389Z,1141.88
2018-06-17T08:46:59.395Z,1119.38
2018-06-17T08:47:59.411Z,1209.38
2018-06-17T08:48:59.412Z,1288.13
2018-06-17T08:49:59.426Z,1136.25
2018-06-17T08:50:59.427Z,1389.38
2018-06-17T08:51:59.441Z,1305.00
2018-06-17T08:52:59.442Z,1479.38
2018-06-17T08:53:59.449Z,1507.50
2018-06-17T08:54:59.458Z,1620.00
2018-06-17T08:55:59.472Z,1777.50
2018-06-17T08:56:59.474Z,1670.63
2018-06-17T08:57:59.480Z,950.63
2018-06-17T08:58:59.489Z,1147.50
2018-06-17T08:59:59.503Z,1113.75
2018-06-17T09:00:59.505Z,1248.75
2018-06-17T09:01:59.513Z,742.50
2018-06-17T09:02:59.521Z,686.25
2018-06-17T09:03:59.537Z,551.25
2018-06-17T09:04:59.538Z,781.88
2018-06-17T09:05:59.550Z,804.38
2018-06-17T09:06:59.554Z,675.00
2018-06-17T09:07:59.562Z,776.25
2018-06-17T09:08:59.570Z,945.00
2018-06-17T09:09:59.578Z,1023.75
2018-06-17T09:10:59.587Z,821.25
2018-06-17T09:11:59.602Z,590.63
2018-06-17T09:12:59.605Z,708.75
2018-06-17T09:13:59.613Z,1023.75
2018-06-17T09:14:59.617Z,1119.38
2018-06-17T09:15:59.631Z,669.38
2018-06-17T09:16:59.634Z,669.38
2018-06-17T09:17:59.649Z,641.25
2018-06-17T09:18:59.648Z,759.38
2018-06-17T09:19:59.657Z,596.25
2018-06-17T09:20:59.711Z,427.50
2018-06-17T09:21:59.718Z,534.38
2018-06-17T09:22:59.678Z,551.25
2018-06-17T09:23:59.686Z,551.25
2018-06-17T09:24:59.697Z,720.00
2018-06-17T09:25:59.701Z,731.25
2018-06-17T09:26:59.707Z,658.13
2018-06-17T09:27:59.715Z,635.63
2018-06-17T09:28:59.722Z,562.50
2018-06-17T09:29:59.729Z,680.63
2018-06-17T09:30:59.738Z,562.50
2018-06-17T09:31:59.771Z,523.13
2018-06-17T09:32:59.751Z,489.38
2018-06-17T09:33:59.757Z,472.50
2018-06-17T09:34:59.765Z,410.63
2018-06-17T09:35:59.773Z,354.38
2018-06-17T09:36:59.780Z,382.50
2018-06-17T09:37:59.789Z,450.00
2018-06-17T09:38:59.792Z,1260.00
2018-06-17T09:39:59.802Z,973.13
2018-06-17T09:40:59.809Z,1400.63
2018-06-17T09:41:59.811Z,753.75
2018-06-17T09:42:59.819Z,1181.25
2018-06-17T09:43:59.825Z,742.50
2018-06-17T09:44:59.833Z,883.13
2018-06-17T09:45:59.839Z,686.25
2018-06-17T09:46:59.847Z,810.00
2018-06-17T09:47:59.853Z,652.50
2018-06-17T09:48:59.861Z,630.00
2018-06-17T09:49:59.866Z,748.13
2018-06-17T09:50:59.873Z,652.50
2018-06-17T09:51:59.892Z,765.00
2018-06-17T09:52:59.890Z,691.88
2018-06-17T09:53:59.893Z,680.63
2018-06-17T09:54:59.901Z,826.88
2018-06-17T09:55:59.908Z,984.38
2018-06-17T09:56:59.914Z,630.00
2018-06-17T09:57:59.921Z,669.38
2018-06-17T09:58:59.928Z,562.50
2018-06-17T09:59:59.936Z,607.50
2018-06-17T10:00:59.944Z,725.63
2018-06-17T10:01:59.949Z,725.63
2018-06-17T10:02:59.955Z,742.50
2018-06-17T10:03:59.963Z,714.38
2018-06-17T10:04:59.975Z,877.50
2018-06-17T10:05:59.976Z,956.25
2018-06-17T10:06:59.984Z,945.00
2018-06-17T10:07:59.989Z,911.25
2018-06-17T10:09:00.038Z,916.88
2018-06-17T10:10:00.008Z,888.75
2018-06-17T10:11:00.011Z,860.63
2018-06-17T10:12:00.018Z,849.38
2018-06-17T10:13:00.027Z,770.63
2018-06-17T10:14:00.031Z,742.50
2018-06-17T10:15:00.046Z,675.00
2018-06-17T10:16:00.081Z,585.00
2018-06-17T10:17:00.053Z,506.25
2018-06-17T10:18:00.058Z,410.63
2018-06-17T10:19:00.067Z,433.13
2018-06-17T10:20:00.073Z,506.25
2018-06-17T10:21:00.081Z,489.38
2018-06-17T10:22:00.086Z,551.25
2018-06-17T10:23:00.094Z,669.38
2018-06-17T10:24:00.101Z,691.88
2018-06-17T10:25:00.109Z,607.50
2018-06-17T10:26:00.115Z,613.13
2018-06-17T10:27:00.121Z,624.38
2018-06-17T10:28:00.128Z,573.75
2018-06-17T10:29:00.135Z,545.63
2018-06-17T10:30:00.143Z,607.50
2018-06-17T10:31:00.147Z,708.75
2018-06-17T10:32:00.155Z,652.50
2018-06-17T10:33:00.161Z,551.25
2018-06-17T10:34:00.167Z,461.25
2018-06-17T10:35:00.175Z,489.38
2018-06-17T10:36:00.182Z,500.63
2018-06-17T10:37:00.190Z,483.75
2018-06-17T10:38:00.209Z,568.13
2018-06-17T10:39:00.200Z,708.75
2018-06-17T10:40:00.207Z,697.50
2018-06-17T10:41:00.214Z,708.75
2018-06-17T10:42:00.219Z,849.38
2018-06-17T10:43:00.226Z,888.75
2018-06-17T10:44:00.233Z,826.88
2018-06-17T10:45:00.241Z,787.50
2018-06-17T10:46:00.246Z,714.38
2018-06-17T10:47:00.252Z,691.88
2018-06-17T10:48:00.260Z,630.00
2018-06-17T10:49:00.265Z,641.25
2018-06-17T10:50:00.275Z,624.38
2018-06-17T10:51:00.278Z,573.75
2018-06-17T10:52:00.285Z,489.38
2018-06-17T10:53:00.292Z,427.50
2018-06-17T10:54:00.298Z,421.88
2018-06-17T10:55:00.305Z,427.50
2018-06-17T10:56:00.409Z,489.38
2018-06-17T10:57:00.318Z,568.13
2018-06-17T10:58:00.324Z,630.00
2018-06-17T10:59:00.329Z,585.00
2018-06-17T11:00:00.338Z,534.38
2018-06-17T11:01:00.346Z,495.00
2018-06-17T11:02:00.351Z,483.75
2018-06-17T11:03:00.356Z,489.38
2018-06-17T11:04:00.363Z,495.00
2018-06-17T11:05:00.370Z,568.13
2018-06-17T11:06:00.376Z,596.25
2018-06-17T11:07:00.382Z,596.25
2018-06-17T11:08:00.389Z,579.38
2018-06-17T11:09:00.398Z,573.75
2018-06-17T11:10:00.401Z,630.00
2018-06-17T11:11:00.409Z,680.63
2018-06-17T11:12:00.416Z,669.38
2018-06-17T11:13:00.464Z,646.88
2018-06-17T11:14:00.426Z,613.13
2018-06-17T11:15:00.434Z,590.63
2018-06-17T11:16:00.443Z,601.88
2018-06-17T11:17:00.446Z,624.38
2018-06-17T11:18:00.452Z,630.00
2018-06-17T11:19:00.459Z,618.75
2018-06-17T11:20:00.467Z,624.38
2018-06-17T11:21:00.471Z,635.63
2018-06-17T11:22:00.478Z,641.25
2018-06-17T11:23:00.486Z,635.63
2018-06-17T11:24:00.491Z,630.00
2018-06-17T11:25:00.496Z,607.50
2018-06-17T11:26:00.502Z,562.50
2018-06-17T11:27:00.508Z,517.50
2018-06-17T11:28:00.515Z,483.75
2018-06-17T11:29:00.521Z,455.63
2018-06-17T11:30:00.526Z,438.75
2018-06-17T11:31:00.533Z,410.63
2018-06-17T11:32:00.540Z,393.75
2018-06-17T11:33:00.547Z,360.00
2018-06-17T11:34:00.551Z,343.13
2018-06-17T11:35:00.561Z,360.00
2018-06-17T11:36:00.567Z,382.50
2018-06-17T11:37:00.570Z,399.38
2018-06-17T11:38:00.577Z,438.75
2018-06-17T11:39:00.666Z,472.50
2018-06-17T11:40:00.595Z,500.63
2018-06-17T11:41:00.594Z,523.13
2018-06-17T11:42:00.603Z,540.00
2018-06-17T11:43:00.606Z,540.00
2018-06-17T11:44:00.612Z,545.63
2018-06-17T11:45:00.616Z,551.25
2018-06-17T11:46:00.625Z,551.25
2018-06-17T11:47:00.629Z,579.38
2018-06-17T11:48:00.636Z,618.75
2018-06-17T11:49:00.640Z,652.50
2018-06-17T11:50:00.646Z,669.38
2018-06-17T11:51:00.674Z,691.88
2018-06-17T11:52:00.659Z,697.50
2018-06-17T11:53:00.665Z,714.38
2018-06-17T11:54:00.674Z,714.38
2018-06-17T11:55:00.678Z,714.38
2018-06-17T11:56:00.684Z,708.75
2018-06-17T11:57:00.692Z,697.50
2018-06-17T11:58:00.695Z,691.88
2018-06-17T11:59:00.703Z,686.25
2018-06-17T12:00:00.707Z,680.63
2018-06-17T12:01:00.714Z,658.13
2018-06-17T12:02:00.720Z,630.00
2018-06-17T12:03:00.726Z,630.00
2018-06-17T12:04:00.733Z,635.63
2018-06-17T12:05:00.737Z,646.88
2018-06-17T12:06:00.745Z,663.75
2018-06-17T12:07:00.757Z,675.00
2018-06-17T12:08:00.758Z,669.38
2018-06-17T12:09:00.762Z,669.38
2018-06-17T12:10:00.769Z,686.25
2018-06-17T12:11:00.776Z,703.13
2018-06-17T12:12:00.783Z,691.88
2018-06-17T12:13:00.789Z,680.63
2018-06-17T12:14:00.794Z,669.38
2018-06-17T12:15:00.802Z,646.88
2018-06-17T12:16:00.809Z,624.38
2018-06-17T12:17:00.816Z,618.75
2018-06-17T12:18:00.820Z,624.38
2018-06-17T12:19:00.828Z,601.88
2018-06-17T12:20:00.833Z,568.13
2018-06-17T12:21:00.840Z,556.88
2018-06-17T12:22:00.846Z,596.25
2018-06-17T12:23:00.855Z,641.25
2018-06-17T12:24:00.860Z,646.88
2018-06-17T12:25:00.866Z,646.88
2018-06-17T12:26:00.871Z,641.25
2018-06-17T12:27:00.878Z,618.75
2018-06-17T12:28:00.885Z,596.25
2018-06-17T12:29:00.893Z,601.88
2018-06-17T12:30:00.898Z,596.25
2018-06-17T12:31:00.903Z,562.50
2018-06-17T12:32:00.911Z,500.63
2018-06-17T12:33:00.918Z,438.75
2018-06-17T12:34:00.923Z,427.50
2018-06-17T12:35:00.930Z,483.75
2018-06-17T12:36:00.937Z,545.63
2018-06-17T12:37:00.943Z,568.13
2018-06-17T12:38:00.949Z,573.75
2018-06-17T12:39:00.955Z,551.25
2018-06-17T12:40:00.962Z,517.50